sensor_id;sensor_type;location;lat;lon;timestamp;temperature;humidity
18225;DHT22;9237;48.590;8.854;2023-11-21T00:00:22;5.80;99.90
18225;DHT22;9237;48.590;8.854;2023-11-21T00:02:49;5.80;99.90
18225;DHT22;9237;48.590;8.854;2023-11-21T00:05:16;5.90;99.90
18225;DHT22;9237;48.590;8.854;2023-11-21T00:07:43;6.00;99.90
18225;DHT22;9237;48.590;8.854;2023-11-21T00:10:11;6.00;99.90
18225;DHT22;9237;48.590;8.854;2023-11-21T00:12:39;6.00;99.90
18225;DHT22;9237;48.590;8.854;2023-11-21T00:15:08;6.00;99.90
18225;DHT22;9237;48.590;8.854;2023-11-21T00:17:37;6.00;99.90
18225;DHT22;9237;48.590;8.854;2023-11-21T00:20:05;6.00;99.90
18225;DHT22;9237;48.590;8.854;2023-11-21T00:22:33;6.00;99.90
18225;DHT22;9237;48.590;8.854;2023-11-21T00:24:59;5.90;99.90
18225;DHT22;9237;48.590;8.854;2023-11-21T00:27:26;5.90;99.90
18225;DHT22;9237;48.590;8.854;2023-11-21T00:29:53;6.00;99.90
18225;DHT22;9237;48.590;8.854;2023-11-21T00:32:20;6.00;99.90
18225;DHT22;9237;48.590;8.854;2023-11-21T00:34:48;6.10;99.90
18225;DHT22;9237;48.590;8.854;2023-11-21T00:37:14;6.10;99.90
18225;DHT22;9237;48.590;8.854;2023-11-21T00:39:41;6.10;99.90
18225;DHT22;9237;48.590;8.854;2023-11-21T00:42:08;6.10;99.90
18225;DHT22;9237;48.590;8.854;2023-11-21T00:44:37;6.10;99.90
18225;DHT22;9237;48.590;8.854;2023-11-21T00:47:04;6.10;99.90
18225;DHT22;9237;48.590;8.854;2023-11-21T00:49:31;6.10;99.90
18225;DHT22;9237;48.590;8.854;2023-11-21T00:51:59;6.10;99.90
18225;DHT22;9237;48.590;8.854;2023-11-21T00:54:27;6.20;99.90
18225;DHT22;9237;48.590;8.854;2023-11-21T00:56:53;6.20;99.90
18225;DHT22;9237;48.590;8.854;2023-11-21T00:59:20;6.10;99.90
18225;DHT22;9237;48.590;8.854;2023-11-21T01:01:48;6.10;99.90
18225;DHT22;9237;48.590;8.854;2023-11-21T01:04:15;6.10;99.90
18225;DHT22;9237;48.590;8.854;2023-11-21T01:06:41;6.10;99.90
18225;DHT22;9237;48.590;8.854;2023-11-21T01:09:10;6.00;99.90
18225;DHT22;9237;48.590;8.854;2023-11-21T01:11:36;6.10;99.90
18225;DHT22;9237;48.590;8.854;2023-11-21T01:14:04;6.10;99.90
18225;DHT22;9237;48.590;8.854;2023-11-21T01:16:32;6.10;99.90
18225;DHT22;9237;48.590;8.854;2023-11-21T01:18:58;6.10;99.90
18225;DHT22;9237;48.590;8.854;2023-11-21T01:21:25;6.10;99.90
18225;DHT22;9237;48.590;8.854;2023-11-21T01:23:53;6.10;99.90
18225;DHT22;9237;48.590;8.854;2023-11-21T01:26:21;6.10;99.90
18225;DHT22;9237;48.590;8.854;2023-11-21T01:28:48;6.20;99.90
18225;DHT22;9237;48.590;8.854;2023-11-21T01:31:15;6.20;99.90
18225;DHT22;9237;48.590;8.854;2023-11-21T01:33:42;6.10;99.90
18225;DHT22;9237;48.590;8.854;2023-11-21T01:36:10;6.10;99.90
18225;DHT22;9237;48.590;8.854;2023-11-21T01:38:36;6.10;99.90
18225;DHT22;9237;48.590;8.854;2023-11-21T01:41:04;6.20;99.90
18225;DHT22;9237;48.590;8.854;2023-11-21T01:43:33;6.20;99.90
18225;DHT22;9237;48.590;8.854;2023-11-21T01:45:59;6.20;99.90
18225;DHT22;9237;48.590;8.854;2023-11-21T01:48:27;6.20;99.90
18225;DHT22;9237;48.590;8.854;2023-11-21T01:50:54;6.20;99.90
18225;DHT22;9237;48.590;8.854;2023-11-21T01:53:21;6.20;99.90
18225;DHT22;9237;48.590;8.854;2023-11-21T01:55:48;6.20;99.90
18225;DHT22;9237;48.590;8.854;2023-11-21T01:58:16;6.30;99.90
18225;DHT22;9237;48.590;8.854;2023-11-21T02:00:44;6.20;99.90
18225;DHT22;9237;48.590;8.854;2023-11-21T02:03:11;6.20;99.90
18225;DHT22;9237;48.590;8.854;2023-11-21T02:05:37;6.20;99.90
18225;DHT22;9237;48.590;8.854;2023-11-21T02:08:04;6.20;99.90
18225;DHT22;9237;48.590;8.854;2023-11-21T02:10:31;6.20;99.90
18225;DHT22;9237;48.590;8.854;2023-11-21T02:12:58;6.20;99.90
18225;DHT22;9237;48.590;8.854;2023-11-21T02:15:28;6.20;99.90
18225;DHT22;9237;48.590;8.854;2023-11-21T02:17:56;6.20;99.90
18225;DHT22;9237;48.590;8.854;2023-11-21T02:20:24;6.20;99.90
18225;DHT22;9237;48.590;8.854;2023-11-21T02:22:54;6.20;99.90
18225;DHT22;9237;48.590;8.854;2023-11-21T02:25:23;6.30;99.90
18225;DHT22;9237;48.590;8.854;2023-11-21T02:27:50;6.30;99.90
18225;DHT22;9237;48.590;8.854;2023-11-21T02:30:17;6.40;99.90
18225;DHT22;9237;48.590;8.854;2023-11-21T02:32:44;6.40;99.90
18225;DHT22;9237;48.590;8.854;2023-11-21T02:35:11;6.40;99.90
18225;DHT22;9237;48.590;8.854;2023-11-21T02:37:38;6.30;99.90
18225;DHT22;9237;48.590;8.854;2023-11-21T02:40:10;6.30;99.90
18225;DHT22;9237;48.590;8.854;2023-11-21T02:42:38;6.20;99.90
18225;DHT22;9237;48.590;8.854;2023-11-21T02:45:05;6.00;99.90
18225;DHT22;9237;48.590;8.854;2023-11-21T02:47:32;6.00;99.90
18225;DHT22;9237;48.590;8.854;2023-11-21T02:49:59;6.00;99.90
18225;DHT22;9237;48.590;8.854;2023-11-21T02:52:26;6.00;99.90
18225;DHT22;9237;48.590;8.854;2023-11-21T02:54:53;6.00;99.90
18225;DHT22;9237;48.590;8.854;2023-11-21T02:57:21;6.00;99.90
18225;DHT22;9237;48.590;8.854;2023-11-21T02:59:47;6.00;99.90
18225;DHT22;9237;48.590;8.854;2023-11-21T03:02:14;6.00;99.90
18225;DHT22;9237;48.590;8.854;2023-11-21T03:04:41;5.90;99.90
18225;DHT22;9237;48.590;8.854;2023-11-21T03:07:09;5.90;99.90
18225;DHT22;9237;48.590;8.854;2023-11-21T03:09:35;5.90;99.90
18225;DHT22;9237;48.590;8.854;2023-11-21T03:12:03;5.80;99.90
18225;DHT22;9237;48.590;8.854;2023-11-21T03:14:31;5.80;99.90
18225;DHT22;9237;48.590;8.854;2023-11-21T03:16:57;5.80;99.90
18225;DHT22;9237;48.590;8.854;2023-11-21T03:19:24;5.80;99.90
18225;DHT22;9237;48.590;8.854;2023-11-21T03:21:51;5.90;99.90
18225;DHT22;9237;48.590;8.854;2023-11-21T03:24:18;5.90;99.90
18225;DHT22;9237;48.590;8.854;2023-11-21T03:26:45;5.90;99.90
18225;DHT22;9237;48.590;8.854;2023-11-21T03:29:13;5.90;99.90
18225;DHT22;9237;48.590;8.854;2023-11-21T03:31:41;5.90;99.90
18225;DHT22;9237;48.590;8.854;2023-11-21T03:34:15;5.90;99.90
18225;DHT22;9237;48.590;8.854;2023-11-21T03:36:41;5.90;99.90
18225;DHT22;9237;48.590;8.854;2023-11-21T03:39:08;5.90;99.90
18225;DHT22;9237;48.590;8.854;2023-11-21T03:41:35;6.00;99.90
18225;DHT22;9237;48.590;8.854;2023-11-21T03:44:02;7.40;99.90
18225;DHT22;9237;48.590;8.854;2023-11-21T03:46:28;6.10;99.90
18225;DHT22;9237;48.590;8.854;2023-11-21T03:48:56;6.10;99.90
18225;DHT22;9237;48.590;8.854;2023-11-21T03:51:23;6.10;99.90
18225;DHT22;9237;48.590;8.854;2023-11-21T03:53:50;6.20;99.90
18225;DHT22;9237;48.590;8.854;2023-11-21T03:56:16;6.20;99.90
18225;DHT22;9237;48.590;8.854;2023-11-21T03:58:43;6.20;99.90
18225;DHT22;9237;48.590;8.854;2023-11-21T04:01:10;6.20;99.90
18225;DHT22;9237;48.590;8.854;2023-11-21T04:03:37;6.20;99.90
18225;DHT22;9237;48.590;8.854;2023-11-21T04:06:07;6.20;99.90
18225;DHT22;9237;48.590;8.854;2023-11-21T04:08:34;6.20;99.90
18225;DHT22;9237;48.590;8.854;2023-11-21T04:11:01;6.20;99.90
18225;DHT22;9237;48.590;8.854;2023-11-21T04:13:28;6.20;99.90
18225;DHT22;9237;48.590;8.854;2023-11-21T04:15:54;6.20;99.90
18225;DHT22;9237;48.590;8.854;2023-11-21T04:18:22;6.20;99.90
18225;DHT22;9237;48.590;8.854;2023-11-21T04:20:48;6.30;99.90
18225;DHT22;9237;48.590;8.854;2023-11-21T04:23:17;6.30;99.90
18225;DHT22;9237;48.590;8.854;2023-11-21T04:25:43;6.30;99.90
18225;DHT22;9237;48.590;8.854;2023-11-21T04:28:10;6.30;99.90
18225;DHT22;9237;48.590;8.854;2023-11-21T04:30:37;6.30;99.90
18225;DHT22;9237;48.590;8.854;2023-11-21T04:33:05;6.30;99.90
18225;DHT22;9237;48.590;8.854;2023-11-21T04:35:31;6.30;99.90
18225;DHT22;9237;48.590;8.854;2023-11-21T04:37:58;6.20;99.90
18225;DHT22;9237;48.590;8.854;2023-11-21T04:40:26;6.20;99.90
18225;DHT22;9237;48.590;8.854;2023-11-21T04:42:53;6.20;99.90
18225;DHT22;9237;48.590;8.854;2023-11-21T04:45:20;6.30;99.90
18225;DHT22;9237;48.590;8.854;2023-11-21T04:47:46;6.30;99.90
18225;DHT22;9237;48.590;8.854;2023-11-21T04:50:13;6.30;99.90
18225;DHT22;9237;48.590;8.854;2023-11-21T04:52:40;6.30;99.90
18225;DHT22;9237;48.590;8.854;2023-11-21T04:55:07;6.30;99.90
18225;DHT22;9237;48.590;8.854;2023-11-21T04:57:37;6.40;99.90
18225;DHT22;9237;48.590;8.854;2023-11-21T05:00:04;6.40;99.90
18225;DHT22;9237;48.590;8.854;2023-11-21T05:02:31;6.40;99.90
18225;DHT22;9237;48.590;8.854;2023-11-21T05:04:59;6.40;99.90
18225;DHT22;9237;48.590;8.854;2023-11-21T05:07:26;6.40;99.90
18225;DHT22;9237;48.590;8.854;2023-11-21T05:09:54;6.40;99.90
18225;DHT22;9237;48.590;8.854;2023-11-21T05:12:21;6.40;99.90
18225;DHT22;9237;48.590;8.854;2023-11-21T05:14:50;6.40;99.90
18225;DHT22;9237;48.590;8.854;2023-11-21T05:17:17;6.30;99.90
18225;DHT22;9237;48.590;8.854;2023-11-21T05:19:43;6.30;99.90
18225;DHT22;9237;48.590;8.854;2023-11-21T05:22:11;6.20;99.90
18225;DHT22;9237;48.590;8.854;2023-11-21T05:24:38;6.20;99.90
18225;DHT22;9237;48.590;8.854;2023-11-21T05:27:05;6.20;99.90
18225;DHT22;9237;48.590;8.854;2023-11-21T05:29:32;6.20;99.90
18225;DHT22;9237;48.590;8.854;2023-11-21T05:32:00;6.20;99.90
18225;DHT22;9237;48.590;8.854;2023-11-21T05:34:27;6.20;99.90
18225;DHT22;9237;48.590;8.854;2023-11-21T05:36:53;6.30;99.90
18225;DHT22;9237;48.590;8.854;2023-11-21T05:39:20;6.30;99.90
18225;DHT22;9237;48.590;8.854;2023-11-21T05:41:47;6.30;99.90
18225;DHT22;9237;48.590;8.854;2023-11-21T05:44:14;6.30;99.90
18225;DHT22;9237;48.590;8.854;2023-11-21T05:46:40;6.20;99.90
18225;DHT22;9237;48.590;8.854;2023-11-21T05:49:10;6.20;99.90
18225;DHT22;9237;48.590;8.854;2023-11-21T05:51:37;6.10;99.90
18225;DHT22;9237;48.590;8.854;2023-11-21T05:54:04;6.10;99.90
18225;DHT22;9237;48.590;8.854;2023-11-21T05:56:31;6.00;99.90
18225;DHT22;9237;48.590;8.854;2023-11-21T05:58:58;5.90;99.90
18225;DHT22;9237;48.590;8.854;2023-11-21T06:01:25;5.90;99.90
18225;DHT22;9237;48.590;8.854;2023-11-21T06:03:53;5.80;99.90
18225;DHT22;9237;48.590;8.854;2023-11-21T06:06:22;5.70;99.90
18225;DHT22;9237;48.590;8.854;2023-11-21T06:08:50;5.70;99.90
18225;DHT22;9237;48.590;8.854;2023-11-21T06:11:16;5.70;99.90
18225;DHT22;9237;48.590;8.854;2023-11-21T06:13:44;5.70;99.90
18225;DHT22;9237;48.590;8.854;2023-11-21T06:16:10;5.70;99.90
18225;DHT22;9237;48.590;8.854;2023-11-21T06:18:38;5.60;99.90
18225;DHT22;9237;48.590;8.854;2023-11-21T06:21:05;5.60;99.90
18225;DHT22;9237;48.590;8.854;2023-11-21T06:23:33;5.60;99.90
18225;DHT22;9237;48.590;8.854;2023-11-21T06:26:00;5.50;99.90
18225;DHT22;9237;48.590;8.854;2023-11-21T06:28:27;5.50;99.90
18225;DHT22;9237;48.590;8.854;2023-11-21T06:30:54;5.50;99.90
18225;DHT22;9237;48.590;8.854;2023-11-21T06:33:20;5.40;99.90
18225;DHT22;9237;48.590;8.854;2023-11-21T06:35:48;5.40;99.90
18225;DHT22;9237;48.590;8.854;2023-11-21T06:38:15;5.50;99.90
18225;DHT22;9237;48.590;8.854;2023-11-21T06:40:43;5.40;99.90
18225;DHT22;9237;48.590;8.854;2023-11-21T06:43:11;5.40;99.90
18225;DHT22;9237;48.590;8.854;2023-11-21T06:45:37;5.40;99.90
18225;DHT22;9237;48.590;8.854;2023-11-21T06:48:04;5.40;99.90
18225;DHT22;9237;48.590;8.854;2023-11-21T06:50:31;5.40;99.90
18225;DHT22;9237;48.590;8.854;2023-11-21T06:52:57;5.40;99.90
18225;DHT22;9237;48.590;8.854;2023-11-21T06:55:24;5.40;99.90
18225;DHT22;9237;48.590;8.854;2023-11-21T06:57:53;5.40;99.90
18225;DHT22;9237;48.590;8.854;2023-11-21T07:00:19;5.50;99.90
18225;DHT22;9237;48.590;8.854;2023-11-21T07:02:46;5.50;99.90
18225;DHT22;9237;48.590;8.854;2023-11-21T07:05:13;5.50;99.90
18225;DHT22;9237;48.590;8.854;2023-11-21T07:07:40;5.60;99.90
18225;DHT22;9237;48.590;8.854;2023-11-21T07:10:07;5.60;99.90
18225;DHT22;9237;48.590;8.854;2023-11-21T07:12:34;5.70;99.90
18225;DHT22;9237;48.590;8.854;2023-11-21T07:15:03;5.70;99.90
18225;DHT22;9237;48.590;8.854;2023-11-21T07:17:31;5.80;99.90
18225;DHT22;9237;48.590;8.854;2023-11-21T07:19:57;5.90;99.90
18225;DHT22;9237;48.590;8.854;2023-11-21T07:22:24;5.90;99.90
18225;DHT22;9237;48.590;8.854;2023-11-21T07:24:51;6.00;99.90
18225;DHT22;9237;48.590;8.854;2023-11-21T07:27:18;6.10;99.90
18225;DHT22;9237;48.590;8.854;2023-11-21T07:29:45;6.10;99.90
18225;DHT22;9237;48.590;8.854;2023-11-21T07:32:13;6.20;99.90
18225;DHT22;9237;48.590;8.854;2023-11-21T07:34:40;6.20;99.90
18225;DHT22;9237;48.590;8.854;2023-11-21T07:37:07;6.30;99.90
18225;DHT22;9237;48.590;8.854;2023-11-21T07:39:35;6.30;99.90
18225;DHT22;9237;48.590;8.854;2023-11-21T07:42:02;6.40;99.90
18225;DHT22;9237;48.590;8.854;2023-11-21T07:44:28;6.40;99.90
18225;DHT22;9237;48.590;8.854;2023-11-21T07:46:55;6.40;99.90
18225;DHT22;9237;48.590;8.854;2023-11-21T07:49:24;6.50;99.90
18225;DHT22;9237;48.590;8.854;2023-11-21T07:51:52;6.60;99.90
18225;DHT22;9237;48.590;8.854;2023-11-21T07:54:19;6.60;99.90
18225;DHT22;9237;48.590;8.854;2023-11-21T07:56:46;6.60;99.90
18225;DHT22;9237;48.590;8.854;2023-11-21T07:59:13;6.70;99.90
18225;DHT22;9237;48.590;8.854;2023-11-21T08:01:40;6.70;99.90
18225;DHT22;9237;48.590;8.854;2023-11-21T08:04:08;6.80;99.90
18225;DHT22;9237;48.590;8.854;2023-11-21T08:06:36;6.80;99.90
18225;DHT22;9237;48.590;8.854;2023-11-21T08:09:03;6.90;99.90
18225;DHT22;9237;48.590;8.854;2023-11-21T08:11:31;6.90;99.90
18225;DHT22;9237;48.590;8.854;2023-11-21T08:13:58;7.00;99.90
18225;DHT22;9237;48.590;8.854;2023-11-21T08:16:25;7.10;99.90
18225;DHT22;9237;48.590;8.854;2023-11-21T08:18:52;7.10;99.90
18225;DHT22;9237;48.590;8.854;2023-11-21T08:21:19;7.10;99.90
18225;DHT22;9237;48.590;8.854;2023-11-21T08:23:47;7.10;99.90
18225;DHT22;9237;48.590;8.854;2023-11-21T08:26:19;7.10;99.90
18225;DHT22;9237;48.590;8.854;2023-11-21T08:28:45;7.20;99.90
18225;DHT22;9237;48.590;8.854;2023-11-21T08:31:13;7.30;99.90
18225;DHT22;9237;48.590;8.854;2023-11-21T08:33:41;7.40;99.90
18225;DHT22;9237;48.590;8.854;2023-11-21T08:36:08;7.50;99.90
18225;DHT22;9237;48.590;8.854;2023-11-21T08:38:36;7.50;99.90
18225;DHT22;9237;48.590;8.854;2023-11-21T08:41:05;7.50;99.90
18225;DHT22;9237;48.590;8.854;2023-11-21T08:43:34;7.60;99.90
18225;DHT22;9237;48.590;8.854;2023-11-21T08:46:01;7.70;99.90
18225;DHT22;9237;48.590;8.854;2023-11-21T08:48:28;7.70;99.90
18225;DHT22;9237;48.590;8.854;2023-11-21T08:50:55;7.70;99.90
18225;DHT22;9237;48.590;8.854;2023-11-21T08:53:22;7.80;99.90
18225;DHT22;9237;48.590;8.854;2023-11-21T08:55:49;7.90;99.90
18225;DHT22;9237;48.590;8.854;2023-11-21T08:58:17;8.00;99.90
18225;DHT22;9237;48.590;8.854;2023-11-21T09:00:43;8.10;99.90
18225;DHT22;9237;48.590;8.854;2023-11-21T09:03:11;8.10;99.90
18225;DHT22;9237;48.590;8.854;2023-11-21T09:05:38;8.00;99.90
18225;DHT22;9237;48.590;8.854;2023-11-21T09:08:05;8.10;99.90
18225;DHT22;9237;48.590;8.854;2023-11-21T09:10:33;8.10;99.90
18225;DHT22;9237;48.590;8.854;2023-11-21T09:13:01;8.00;99.90
18225;DHT22;9237;48.590;8.854;2023-11-21T09:15:29;8.20;99.90
18225;DHT22;9237;48.590;8.854;2023-11-21T09:17:56;8.20;99.90
18225;DHT22;9237;48.590;8.854;2023-11-21T09:20:23;8.20;99.90
18225;DHT22;9237;48.590;8.854;2023-11-21T09:22:49;8.30;99.90
18225;DHT22;9237;48.590;8.854;2023-11-21T09:25:16;8.40;99.90
18225;DHT22;9237;48.590;8.854;2023-11-21T09:27:44;8.50;99.90
18225;DHT22;9237;48.590;8.854;2023-11-21T09:30:12;8.60;99.90
18225;DHT22;9237;48.590;8.854;2023-11-21T09:32:41;8.80;99.90
18225;DHT22;9237;48.590;8.854;2023-11-21T09:35:10;8.80;99.90
18225;DHT22;9237;48.590;8.854;2023-11-21T09:37:39;8.90;99.90
18225;DHT22;9237;48.590;8.854;2023-11-21T09:40:10;8.90;99.90
18225;DHT22;9237;48.590;8.854;2023-11-21T09:42:42;8.80;99.90
18225;DHT22;9237;48.590;8.854;2023-11-21T09:45:15;8.80;99.90
18225;DHT22;9237;48.590;8.854;2023-11-21T09:47:45;8.70;99.90
18225;DHT22;9237;48.590;8.854;2023-11-21T09:50:17;8.60;99.90
18225;DHT22;9237;48.590;8.854;2023-11-21T09:52:49;8.50;99.90
18225;DHT22;9237;48.590;8.854;2023-11-21T09:55:21;8.50;99.90
18225;DHT22;9237;48.590;8.854;2023-11-21T09:57:49;8.50;99.90
18225;DHT22;9237;48.590;8.854;2023-11-21T10:00:16;8.50;99.90
18225;DHT22;9237;48.590;8.854;2023-11-21T10:02:46;8.60;99.90
18225;DHT22;9237;48.590;8.854;2023-11-21T10:05:15;8.70;99.90
18225;DHT22;9237;48.590;8.854;2023-11-21T10:07:43;8.70;99.90
18225;DHT22;9237;48.590;8.854;2023-11-21T10:10:12;8.80;99.90
18225;DHT22;9237;48.590;8.854;2023-11-21T10:12:41;8.90;99.90
18225;DHT22;9237;48.590;8.854;2023-11-21T10:15:11;8.90;99.90
18225;DHT22;9237;48.590;8.854;2023-11-21T10:17:44;9.00;99.90
18225;DHT22;9237;48.590;8.854;2023-11-21T10:20:14;9.10;99.90
18225;DHT22;9237;48.590;8.854;2023-11-21T10:22:41;9.20;99.90
18225;DHT22;9237;48.590;8.854;2023-11-21T10:25:08;9.30;99.90
18225;DHT22;9237;48.590;8.854;2023-11-21T10:27:35;9.40;99.90
18225;DHT22;9237;48.590;8.854;2023-11-21T10:30:05;9.50;99.90
18225;DHT22;9237;48.590;8.854;2023-11-21T10:32:33;9.60;99.90
18225;DHT22;9237;48.590;8.854;2023-11-21T10:35:00;9.80;99.90
18225;DHT22;9237;48.590;8.854;2023-11-21T10:37:33;9.80;99.90
18225;DHT22;9237;48.590;8.854;2023-11-21T10:39:59;9.80;99.90
18225;DHT22;9237;48.590;8.854;2023-11-21T10:42:26;9.60;99.90
18225;DHT22;9237;48.590;8.854;2023-11-21T10:44:55;9.60;99.90
18225;DHT22;9237;48.590;8.854;2023-11-21T10:47:22;9.50;99.90
18225;DHT22;9237;48.590;8.854;2023-11-21T10:49:49;9.30;99.90
18225;DHT22;9237;48.590;8.854;2023-11-21T10:52:16;9.20;99.90
18225;DHT22;9237;48.590;8.854;2023-11-21T10:54:46;9.00;99.90
18225;DHT22;9237;48.590;8.854;2023-11-21T10:57:17;8.90;99.90
18225;DHT22;9237;48.590;8.854;2023-11-21T10:59:46;8.90;99.90
18225;DHT22;9237;48.590;8.854;2023-11-21T11:02:21;8.90;99.90
18225;DHT22;9237;48.590;8.854;2023-11-21T11:04:52;8.90;99.90
18225;DHT22;9237;48.590;8.854;2023-11-21T11:07:21;8.90;99.90
18225;DHT22;9237;48.590;8.854;2023-11-21T11:09:50;8.90;99.90
18225;DHT22;9237;48.590;8.854;2023-11-21T11:12:17;9.00;99.90
18225;DHT22;9237;48.590;8.854;2023-11-21T11:14:44;9.00;99.90
18225;DHT22;9237;48.590;8.854;2023-11-21T11:17:12;9.00;99.90
18225;DHT22;9237;48.590;8.854;2023-11-21T11:19:40;9.00;99.90
18225;DHT22;9237;48.590;8.854;2023-11-21T11:22:16;8.90;99.90
18225;DHT22;9237;48.590;8.854;2023-11-21T11:25:07;8.90;99.90
18225;DHT22;9237;48.590;8.854;2023-11-21T11:27:47;9.00;99.90
18225;DHT22;9237;48.590;8.854;2023-11-21T11:30:23;9.00;99.90
18225;DHT22;9237;48.590;8.854;2023-11-21T11:33:00;9.10;99.90
18225;DHT22;9237;48.590;8.854;2023-11-21T11:38:16;9.10;99.90
18225;DHT22;9237;48.590;8.854;2023-11-21T11:40:46;8.80;99.90
18225;DHT22;9237;48.590;8.854;2023-11-21T11:43:13;8.80;99.90
18225;DHT22;9237;48.590;8.854;2023-11-21T11:45:50;8.80;99.90
18225;DHT22;9237;48.590;8.854;2023-11-21T11:48:21;8.90;99.90
18225;DHT22;9237;48.590;8.854;2023-11-21T11:51:10;9.00;99.90
18225;DHT22;9237;48.590;8.854;2023-11-21T11:53:39;9.10;99.90
18225;DHT22;9237;48.590;8.854;2023-11-21T11:56:29;9.30;99.90
18225;DHT22;9237;48.590;8.854;2023-11-21T11:59:00;9.30;99.90
18225;DHT22;9237;48.590;8.854;2023-11-21T12:01:28;9.30;99.90
18225;DHT22;9237;48.590;8.854;2023-11-21T12:04:23;9.20;99.90
18225;DHT22;9237;48.590;8.854;2023-11-21T12:06:56;9.20;99.90
18225;DHT22;9237;48.590;8.854;2023-11-21T12:09:26;9.00;99.90
18225;DHT22;9237;48.590;8.854;2023-11-21T12:11:55;9.00;99.90
18225;DHT22;9237;48.590;8.854;2023-11-21T12:14:23;9.00;99.90
18225;DHT22;9237;48.590;8.854;2023-11-21T12:16:50;9.00;99.90
18225;DHT22;9237;48.590;8.854;2023-11-21T12:19:17;8.90;99.90
18225;DHT22;9237;48.590;8.854;2023-11-21T12:21:44;8.90;99.90
18225;DHT22;9237;48.590;8.854;2023-11-21T12:24:11;8.90;99.90
18225;DHT22;9237;48.590;8.854;2023-11-21T12:26:39;8.90;99.90
18225;DHT22;9237;48.590;8.854;2023-11-21T12:29:07;9.00;99.90
18225;DHT22;9237;48.590;8.854;2023-11-21T12:31:34;9.10;99.90
18225;DHT22;9237;48.590;8.854;2023-11-21T12:34:01;9.20;99.90
18225;DHT22;9237;48.590;8.854;2023-11-21T12:36:28;9.20;99.90
18225;DHT22;9237;48.590;8.854;2023-11-21T12:38:56;9.20;99.90
18225;DHT22;9237;48.590;8.854;2023-11-21T12:41:22;9.30;99.90
18225;DHT22;9237;48.590;8.854;2023-11-21T12:43:49;9.40;99.90
18225;DHT22;9237;48.590;8.854;2023-11-21T12:46:17;9.40;99.90
18225;DHT22;9237;48.590;8.854;2023-11-21T12:48:45;9.40;99.90
18225;DHT22;9237;48.590;8.854;2023-11-21T12:51:13;9.50;99.90
18225;DHT22;9237;48.590;8.854;2023-11-21T12:53:41;9.50;99.90
18225;DHT22;9237;48.590;8.854;2023-11-21T12:56:10;9.40;99.90
18225;DHT22;9237;48.590;8.854;2023-11-21T12:58:37;9.40;99.90
18225;DHT22;9237;48.590;8.854;2023-11-21T13:01:06;9.40;99.90
18225;DHT22;9237;48.590;8.854;2023-11-21T13:03:38;9.40;99.90
18225;DHT22;9237;48.590;8.854;2023-11-21T13:06:06;9.30;99.90
18225;DHT22;9237;48.590;8.854;2023-11-21T13:08:34;9.40;99.90
18225;DHT22;9237;48.590;8.854;2023-11-21T13:11:01;9.30;99.90
18225;DHT22;9237;48.590;8.854;2023-11-21T13:13:29;9.30;99.90
18225;DHT22;9237;48.590;8.854;2023-11-21T13:15:58;9.10;99.90
18225;DHT22;9237;48.590;8.854;2023-11-21T13:18:28;9.10;99.90
18225;DHT22;9237;48.590;8.854;2023-11-21T13:20:58;9.00;99.90
18225;DHT22;9237;48.590;8.854;2023-11-21T13:23:26;9.00;99.90
18225;DHT22;9237;48.590;8.854;2023-11-21T13:25:53;9.00;99.90
18225;DHT22;9237;48.590;8.854;2023-11-21T13:28:20;9.00;99.90
18225;DHT22;9237;48.590;8.854;2023-11-21T13:30:49;9.00;99.90
18225;DHT22;9237;48.590;8.854;2023-11-21T13:33:18;9.00;99.90
18225;DHT22;9237;48.590;8.854;2023-11-21T13:35:48;8.90;99.90
18225;DHT22;9237;48.590;8.854;2023-11-21T13:38:18;9.00;99.90
18225;DHT22;9237;48.590;8.854;2023-11-21T13:40:50;9.00;99.90
18225;DHT22;9237;48.590;8.854;2023-11-21T13:43:20;9.00;99.90
18225;DHT22;9237;48.590;8.854;2023-11-21T13:45:49;9.00;99.90
18225;DHT22;9237;48.590;8.854;2023-11-21T13:48:21;9.20;99.90
18225;DHT22;9237;48.590;8.854;2023-11-21T13:50:54;9.20;99.90
18225;DHT22;9237;48.590;8.854;2023-11-21T13:53:25;9.20;99.90
18225;DHT22;9237;48.590;8.854;2023-11-21T13:55:53;9.20;99.90
18225;DHT22;9237;48.590;8.854;2023-11-21T13:58:20;9.20;99.90
18225;DHT22;9237;48.590;8.854;2023-11-21T14:00:50;9.20;99.90
18225;DHT22;9237;48.590;8.854;2023-11-21T14:03:22;9.20;99.90
18225;DHT22;9237;48.590;8.854;2023-11-21T14:05:50;9.20;99.90
18225;DHT22;9237;48.590;8.854;2023-11-21T14:08:19;9.10;99.90
18225;DHT22;9237;48.590;8.854;2023-11-21T14:10:48;9.10;99.90
18225;DHT22;9237;48.590;8.854;2023-11-21T14:13:23;9.00;99.90
18225;DHT22;9237;48.590;8.854;2023-11-21T14:15:50;9.00;99.90
18225;DHT22;9237;48.590;8.854;2023-11-21T14:18:23;8.90;99.90
18225;DHT22;9237;48.590;8.854;2023-11-21T14:20:55;8.80;99.90
18225;DHT22;9237;48.590;8.854;2023-11-21T14:23:22;8.70;99.90
18225;DHT22;9237;48.590;8.854;2023-11-21T14:25:50;8.70;99.90
18225;DHT22;9237;48.590;8.854;2023-11-21T14:28:18;8.70;99.90
18225;DHT22;9237;48.590;8.854;2023-11-21T14:30:45;8.70;99.90
18225;DHT22;9237;48.590;8.854;2023-11-21T14:33:12;8.70;99.90
18225;DHT22;9237;48.590;8.854;2023-11-21T14:35:39;8.70;99.90
18225;DHT22;9237;48.590;8.854;2023-11-21T14:38:05;8.70;99.90
18225;DHT22;9237;48.590;8.854;2023-11-21T14:40:32;8.80;99.90
18225;DHT22;9237;48.590;8.854;2023-11-21T14:43:02;8.80;99.90
18225;DHT22;9237;48.590;8.854;2023-11-21T14:45:30;8.80;99.90
18225;DHT22;9237;48.590;8.854;2023-11-21T14:47:57;8.70;99.90
18225;DHT22;9237;48.590;8.854;2023-11-21T14:50:32;8.70;99.90
18225;DHT22;9237;48.590;8.854;2023-11-21T14:53:14;8.70;99.90
18225;DHT22;9237;48.590;8.854;2023-11-21T14:55:40;8.70;99.90
18225;DHT22;9237;48.590;8.854;2023-11-21T14:58:24;8.60;99.90
18225;DHT22;9237;48.590;8.854;2023-11-21T15:00:53;8.60;99.90
18225;DHT22;9237;48.590;8.854;2023-11-21T15:03:23;8.50;99.90
18225;DHT22;9237;48.590;8.854;2023-11-21T15:06:08;8.40;99.90
18225;DHT22;9237;48.590;8.854;2023-11-21T15:08:53;8.30;99.90
18225;DHT22;9237;48.590;8.854;2023-11-21T15:11:37;8.30;99.90
18225;DHT22;9237;48.590;8.854;2023-11-21T15:14:05;8.10;99.90
18225;DHT22;9237;48.590;8.854;2023-11-21T15:16:34;8.10;99.90
18225;DHT22;9237;48.590;8.854;2023-11-21T15:19:04;8.00;99.90
18225;DHT22;9237;48.590;8.854;2023-11-21T15:21:32;8.00;99.90
18225;DHT22;9237;48.590;8.854;2023-11-21T15:23:59;8.00;99.90
18225;DHT22;9237;48.590;8.854;2023-11-21T15:26:25;8.00;99.90
18225;DHT22;9237;48.590;8.854;2023-11-21T15:28:52;8.00;99.90
18225;DHT22;9237;48.590;8.854;2023-11-21T15:31:20;7.90;99.90
18225;DHT22;9237;48.590;8.854;2023-11-21T15:33:50;7.90;99.90
18225;DHT22;9237;48.590;8.854;2023-11-21T15:36:17;7.80;99.90
18225;DHT22;9237;48.590;8.854;2023-11-21T15:38:44;7.70;99.90
18225;DHT22;9237;48.590;8.854;2023-11-21T15:41:11;7.70;99.90
18225;DHT22;9237;48.590;8.854;2023-11-21T15:43:38;7.60;99.90
18225;DHT22;9237;48.590;8.854;2023-11-21T15:46:05;7.60;99.90
18225;DHT22;9237;48.590;8.854;2023-11-21T15:48:35;7.60;99.90
18225;DHT22;9237;48.590;8.854;2023-11-21T15:51:04;7.60;99.90
18225;DHT22;9237;48.590;8.854;2023-11-21T15:53:31;7.50;99.90
18225;DHT22;9237;48.590;8.854;2023-11-21T15:55:58;7.50;99.90
18225;DHT22;9237;48.590;8.854;2023-11-21T15:58:25;7.40;99.90
18225;DHT22;9237;48.590;8.854;2023-11-21T16:00:52;7.40;99.90
18225;DHT22;9237;48.590;8.854;2023-11-21T16:03:19;7.30;99.90
18225;DHT22;9237;48.590;8.854;2023-11-21T16:05:49;7.40;99.90
18225;DHT22;9237;48.590;8.854;2023-11-21T16:08:15;7.40;99.90
18225;DHT22;9237;48.590;8.854;2023-11-21T16:10:43;7.30;99.90